Time;durP1;ratioP1;P1;durP2;ratioP2;P2;SDS_P1;SDS_P2;PMS_P1;PMS_P2;Temp;Humidity;BMP_temperature;BMP_pressure;BME280_temperature;BME280_humidity;BME280_pressure;Samples;Min_cycle;Max_cycle;Signal;HPM_P1;HPM_P2
2021/08/05 00:01:20;;;;;;;7.03;4.25;;;;;;;;;;4934311;29;20039;-74
2021/08/05 00:03:46;;;;;;;8.05;4.82;;;;;;;;;;4918951;29;20023;-73
2021/08/05 00:06:12;;;;;;;6.70;4.15;;;;;;;;;;4934252;29;20576;-74
2021/08/05 00:08:37;;;;;;;5.97;4.20;;;;;;;;;;4918676;29;20110;-73
2021/08/05 00:11:03;;;;;;;6.50;4.13;;;;;;;;;;4934573;29;20499;-73
2021/08/05 00:13:28;;;;;;;7.70;5.47;;;;;;;;;;4918388;29;20032;-74
2021/08/05 00:15:54;;;;;;;11.77;4.38;;;;;;;;;;4935511;29;20024;-74
2021/08/05 00:18:20;;;;;;;5.88;4.80;;;;;;;;;;4935558;29;20118;-74
2021/08/05 00:20:46;;;;;;;6.53;4.40;;;;;;;;;;4935754;29;20043;-73
2021/08/05 00:23:11;;;;;;;6.95;5.15;;;;;;;;;;4918543;29;20440;-73
2021/08/05 00:25:37;;;;;;;6.03;4.53;;;;;;;;;;4935031;29;20039;-74
2021/08/05 00:28:03;;;;;;;6.78;4.75;;;;;;;;;;4935309;29;20083;-74
2021/08/05 00:30:29;;;;;;;10.30;4.95;;;;;;;;;;4917974;29;20039;-73
2021/08/05 00:32:55;;;;;;;8.00;4.80;;;;;;;;;;4935395;29;20023;-74
2021/08/05 00:35:21;;;;;;;7.78;5.07;;;;;;;;;;4918093;29;20131;-74
2021/08/05 00:37:46;;;;;;;7.18;5.13;;;;;;;;;;4918169;29;20031;-74
2021/08/05 00:40:12;;;;;;;7.68;5.03;;;;;;;;;;4918270;29;20097;-74
2021/08/05 00:42:37;;;;;;;6.10;4.70;;;;;;;;;;4918721;29;20082;-74
2021/08/05 00:45:03;;;;;;;8.05;5.22;;;;;;;;;;4933880;29;20094;-74
2021/08/05 00:47:29;;;;;;;7.60;4.82;;;;;;;;;;4917761;29;20083;-74
2021/08/05 00:49:56;;;;;;;7.15;5.20;;;;;;;;;;4935026;29;20107;-73
2021/08/05 00:52:22;;;;;;;6.32;4.95;;;;;;;;;;4917578;29;20031;-73
2021/08/05 00:54:48;;;;;;;7.70;4.43;;;;;;;;;;4934881;29;20082;-73
2021/08/05 00:57:13;;;;;;;8.45;4.82;;;;;;;;;;4934854;29;20028;-73
2021/08/05 00:59:39;;;;;;;9.98;5.25;;;;;;;;;;4933468;29;20483;-74
2021/08/05 01:02:16;;;;;;;10.88;5.25;;;;;;;;;;4917789;29;20032;-74
2021/08/05 01:04:42;;;;;;;7.13;4.80;;;;;;;;;;4934919;29;20032;-74
2021/08/05 01:07:26;;;;;;;9.05;4.40;;;;;;;;;;4934726;29;20024;-73
2021/08/05 01:10:12;;;;;;;8.63;4.90;;;;;;;;;;4916832;29;20035;-73
2021/08/05 01:12:52;;;;;;;5.70;4.80;;;;;;;;;;4917652;29;20493;-73
2021/08/05 01:15:26;;;;;;;7.22;5.00;;;;;;;;;;4917335;29;20059;-74
2021/08/05 01:18:05;;;;;;;7.55;5.35;;;;;;;;;;4934522;29;20023;-74
2021/08/05 01:20:31;;;;;;;9.15;5.25;;;;;;;;;;4934663;29;20027;-73
2021/08/05 01:23:12;;;;;;;7.22;5.32;;;;;;;;;;4934502;29;20023;-74
2021/08/05 01:25:43;;;;;;;9.20;5.63;;;;;;;;;;4917124;29;20134;-74
2021/08/05 01:28:11;;;;;;;6.28;4.78;;;;;;;;;;4917260;29;20032;-73
2021/08/05 01:30:40;;;;;;;11.07;5.25;;;;;;;;;;4917144;29;20042;-74
2021/08/05 01:33:06;;;;;;;6.18;4.90;;;;;;;;;;4934311;29;20035;-74
2021/08/05 01:35:32;;;;;;;8.70;5.88;;;;;;;;;;4934008;29;20027;-74
2021/08/05 01:38:00;;;;;;;6.00;5.40;;;;;;;;;;4933061;29;20432;-72
2021/08/05 01:40:26;;;;;;;10.82;5.00;;;;;;;;;;4936969;29;20030;-73
2021/08/05 01:42:55;;;;;;;9.95;5.05;;;;;;;;;;4922731;29;20094;-73
2021/08/05 01:45:21;;;;;;;8.45;5.72;;;;;;;;;;4939449;29;20027;-73
2021/08/05 01:47:47;;;;;;;8.32;5.45;;;;;;;;;;4934101;29;20078;-73
2021/08/05 01:50:14;;;;;;;7.68;5.05;;;;;;;;;;4916931;29;20118;-74
2021/08/05 01:52:42;;;;;;;10.50;5.85;;;;;;;;;;4916727;29;20056;-73
2021/08/05 01:55:08;;;;;;;7.75;4.93;;;;;;;;;;4917185;29;20062;-73
2021/08/05 01:57:34;;;;;;;11.85;5.40;;;;;;;;;;4933681;29;20032;-74
2021/08/05 01:59:59;;;;;;;7.43;6.32;;;;;;;;;;4933885;29;20035;-73
2021/08/05 02:02:25;;;;;;;10.45;6.10;;;;;;;;;;4933759;29;20475;-74
2021/08/05 02:05:07;;;;;;;7.93;5.55;;;;;;;;;;4933847;29;20028;-73
2021/08/05 02:07:41;;;;;;;8.77;5.03;;;;;;;;;;4933648;29;20725;-73
2021/08/05 02:10:27;;;;;;;9.30;5.43;;;;;;;;;;4916620;29;20044;-73
2021/08/05 02:13:13;;;;;;;7.35;5.75;;;;;;;;;;4933674;29;20063;-74
2021/08/05 02:15:46;;;;;;;13.90;6.85;;;;;;;;;;4916045;29;20027;-73
2021/08/05 02:18:13;;;;;;;10.43;6.97;;;;;;;;;;4916432;29;20032;-73
2021/08/05 02:20:42;;;;;;;8.48;6.07;;;;;;;;;;4935030;29;20039;-73
2021/08/05 02:23:09;;;;;;;12.20;6.65;;;;;;;;;;4934153;29;20043;-73
2021/08/05 02:25:36;;;;;;;13.43;9.57;;;;;;;;;;4933060;29;20102;-73
2021/08/05 02:28:01;;;;;;;9.88;6.43;;;;;;;;;;4916586;29;20059;-74
2021/08/05 02:30:27;;;;;;;13.05;6.80;;;;;;;;;;4932896;29;20074;-74
2021/08/05 02:32:53;;;;;;;14.15;7.28;;;;;;;;;;4933246;29;20425;-74
2021/08/05 02:35:20;;;;;;;10.70;7.00;;;;;;;;;;4931777;29;20046;-75
2021/08/05 02:37:45;;;;;;;15.07;7.40;;;;;;;;;;4933109;29;20028;-73
2021/08/05 02:40:12;;;;;;;12.15;7.05;;;;;;;;;;4915997;29;20026;-74
2021/08/05 02:42:38;;;;;;;11.63;7.40;;;;;;;;;;4931660;29;20523;-74
2021/08/05 02:45:04;;;;;;;11.85;8.20;;;;;;;;;;4933102;29;20062;-74
2021/08/05 02:47:30;;;;;;;15.82;9.68;;;;;;;;;;4933029;29;20138;-73
2021/08/05 02:49:57;;;;;;;10.88;8.18;;;;;;;;;;4933405;29;20155;-74
2021/08/05 02:52:23;;;;;;;11.77;8.57;;;;;;;;;;4915838;29;20031;-74
2021/08/05 02:54:49;;;;;;;11.57;7.90;;;;;;;;;;4933071;29;20205;-73
2021/08/05 02:57:14;;;;;;;14.05;8.73;;;;;;;;;;4932975;29;20099;-75
2021/08/05 02:59:42;;;;;;;12.70;8.85;;;;;;;;;;4915682;29;20032;-73
2021/08/05 03:02:08;;;;;;;12.82;7.97;;;;;;;;;;4900576;29;20091;-74
2021/08/05 03:04:33;;;;;;;12.32;8.75;;;;;;;;;;4931309;29;20535;-73
2021/08/05 03:07:00;;;;;;;15.20;8.90;;;;;;;;;;4931688;29;20027;-74
2021/08/05 03:09:26;;;;;;;15.85;8.90;;;;;;;;;;4932643;29;20035;-73
2021/08/05 03:11:51;;;;;;;13.35;8.98;;;;;;;;;;4915575;29;20031;-73
2021/08/05 03:14:17;;;;;;;13.48;8.90;;;;;;;;;;4931549;29;20031;-76
2021/08/05 03:16:42;;;;;;;17.75;9.13;;;;;;;;;;4932346;29;20038;-77
2021/08/05 03:19:08;;;;;;;12.70;9.15;;;;;;;;;;4933049;29;20117;-77
2021/08/05 03:21:33;;;;;;;17.25;9.00;;;;;;;;;;4915258;29;20443;-75
2021/08/05 03:23:59;;;;;;;13.85;8.40;;;;;;;;;;4915388;29;20341;-75
2021/08/05 03:26:25;;;;;;;13.18;9.18;;;;;;;;;;4931292;29;20132;-75
2021/08/05 03:28:50;;;;;;;13.95;9.63;;;;;;;;;;4915764;29;20058;-77
2021/08/05 03:31:16;;;;;;;16.33;9.27;;;;;;;;;;4932325;29;20858;-73
2021/08/05 03:33:41;;;;;;;18.10;10.05;;;;;;;;;;4931880;29;20041;-74
2021/08/05 03:36:07;;;;;;;15.93;9.52;;;;;;;;;;4932350;29;20051;-72
2021/08/05 03:38:32;;;;;;;19.73;10.32;;;;;;;;;;4917054;29;20039;-73
2021/08/05 03:40:58;;;;;;;18.55;10.32;;;;;;;;;;4932580;29;20031;-73
2021/08/05 03:43:23;;;;;;;12.43;9.60;;;;;;;;;;4932923;29;20024;-74
2021/08/05 03:45:49;;;;;;;16.58;8.82;;;;;;;;;;4932160;29;20028;-73
2021/08/05 03:48:14;;;;;;;13.77;9.88;;;;;;;;;;4915046;29;20446;-74
2021/08/05 03:50:40;;;;;;;15.32;10.15;;;;;;;;;;4930457;29;20531;-74
2021/08/05 03:53:06;;;;;;;18.25;9.77;;;;;;;;;;4932054;29;20085;-74
2021/08/05 03:55:31;;;;;;;16.55;10.35;;;;;;;;;;4931849;29;20020;-74
2021/08/05 03:57:57;;;;;;;16.45;9.63;;;;;;;;;;4914853;29;20036;-74
2021/08/05 04:00:23;;;;;;;16.42;10.75;;;;;;;;;;4915061;29;20075;-72
2021/08/05 04:02:48;;;;;;;17.92;10.02;;;;;;;;;;4914776;29;20079;-74
2021/08/05 04:05:14;;;;;;;18.48;10.65;;;;;;;;;;4914957;29;20408;-74
2021/08/05 04:07:40;;;;;;;14.27;9.73;;;;;;;;;;4931886;29;20336;-74
2021/08/05 04:10:06;;;;;;;13.50;9.55;;;;;;;;;;4932000;29;20023;-74
2021/08/05 04:12:32;;;;;;;14.77;9.85;;;;;;;;;;4930867;29;20054;-74
2021/08/05 04:14:57;;;;;;;14.27;9.48;;;;;;;;;;4932014;29;20027;-74
2021/08/05 04:17:23;;;;;;;15.98;9.88;;;;;;;;;;4932479;29;20051;-74
2021/08/05 04:19:48;;;;;;;18.08;9.85;;;;;;;;;;4931901;29;20028;-73
2021/08/05 04:22:14;;;;;;;21.70;11.18;;;;;;;;;;4931969;29;20058;-74
2021/08/05 04:24:39;;;;;;;16.63;10.10;;;;;;;;;;4931609;29;20574;-73
2021/08/05 04:27:05;;;;;;;16.13;10.18;;;;;;;;;;4931953;29;20024;-73
2021/08/05 04:29:31;;;;;;;19.15;11.98;;;;;;;;;;4930721;29;20039;-72
2021/08/05 04:31:57;;;;;;;24.02;12.45;;;;;;;;;;4931964;29;20472;-75
2021/08/05 04:34:22;;;;;;;21.77;12.63;;;;;;;;;;4930639;29;20047;-77
2021/08/05 04:36:48;;;;;;;21.58;13.75;;;;;;;;;;4914698;29;20119;-75
2021/08/05 04:39:13;;;;;;;21.88;14.23;;;;;;;;;;4930415;29;20027;-77
2021/08/05 04:41:39;;;;;;;28.42;14.98;;;;;;;;;;4931634;29;20028;-77
2021/08/05 04:44:05;;;;;;;23.50;15.32;;;;;;;;;;4915035;29;20032;-76
2021/08/05 04:46:30;;;;;;;24.75;15.88;;;;;;;;;;4935065;29;20475;-76
2021/08/05 04:48:56;;;;;;;24.63;15.07;;;;;;;;;;4918002;29;20059;-76
2021/08/05 04:51:21;;;;;;;23.65;17.05;;;;;;;;;;4935166;29;20388;-76
2021/08/05 04:53:46;;;;;;;28.13;16.63;;;;;;;;;;4934970;29;20281;-77
2021/08/05 04:56:12;;;;;;;24.42;15.65;;;;;;;;;;4918208;29;20024;-77
2021/08/05 04:58:38;;;;;;;28.10;16.33;;;;;;;;;;4917734;29;20032;-77
2021/08/05 05:01:03;;;;;;;23.30;15.18;;;;;;;;;;4935174;29;20054;-77
2021/08/05 05:03:29;;;;;;;23.48;16.27;;;;;;;;;;4933866;29;20035;-77
2021/08/05 05:05:54;;;;;;;28.23;16.25;;;;;;;;;;4917724;29;20027;-77
2021/08/05 05:08:24;;;;;;;33.05;15.55;;;;;;;;;;4918498;29;20052;-78
2021/08/05 05:10:54;;;;;;;25.05;17.02;;;;;;;;;;4934819;29;20055;-76
2021/08/05 05:13:20;;;;;;;24.50;16.27;;;;;;;;;;4935219;29;20070;-77
2021/08/05 05:15:47;;;;;;;26.88;16.52;;;;;;;;;;4934810;29;20027;-76
2021/08/05 05:18:14;;;;;;;25.70;17.30;;;;;;;;;;4917701;29;20531;-76
2021/08/05 05:20:40;;;;;;;30.02;18.73;;;;;;;;;;4934547;29;20514;-77
2021/08/05 05:23:07;;;;;;;26.40;15.23;;;;;;;;;;4934769;29;20028;-76
2021/08/05 05:25:34;;;;;;;42.53;25.75;;;;;;;;;;4901028;29;20114;-77
2021/08/05 05:28:00;;;;;;;27.45;16.77;;;;;;;;;;4934390;29;20506;-76
2021/08/05 05:30:25;;;;;;;26.52;17.48;;;;;;;;;;4934510;29;20027;-74
2021/08/05 05:32:51;;;;;;;32.58;18.05;;;;;;;;;;4934361;29;20098;-74
2021/08/05 05:35:18;;;;;;;31.50;18.63;;;;;;;;;;4934267;29;20051;-73
2021/08/05 05:37:45;;;;;;;33.53;19.60;;;;;;;;;;4916910;29;20027;-73
2021/08/05 05:40:11;;;;;;;36.63;20.45;;;;;;;;;;4916723;29;20032;-74
2021/08/05 05:42:37;;;;;;;38.28;21.02;;;;;;;;;;4933846;29;20039;-73
2021/08/05 05:45:03;;;;;;;34.50;21.25;;;;;;;;;;4934021;29;20031;-73
2021/08/05 05:47:29;;;;;;;38.60;22.30;;;;;;;;;;4933887;29;20028;-74
2021/08/05 05:49:55;;;;;;;40.40;22.13;;;;;;;;;;4932554;29;20039;-76
2021/08/05 05:52:21;;;;;;;35.75;22.38;;;;;;;;;;4933882;29;20024;-72
2021/08/05 05:54:47;;;;;;;39.72;23.13;;;;;;;;;;4916486;29;20031;-73
2021/08/05 05:57:12;;;;;;;38.67;22.90;;;;;;;;;;4933740;29;20024;-74
2021/08/05 05:59:40;;;;;;;34.05;21.30;;;;;;;;;;4916633;29;20086;-74
2021/08/05 06:02:06;;;;;;;38.03;21.33;;;;;;;;;;4933991;29;20518;-74
2021/08/05 06:04:31;;;;;;;44.50;26.75;;;;;;;;;;4949472;28;20041;-72
2021/08/05 06:06:57;;;;;;;33.97;20.08;;;;;;;;;;4953748;28;20039;-74
2021/08/05 06:09:22;;;;;;;34.17;21.13;;;;;;;;;;4951123;29;20039;-74
2021/08/05 06:11:48;;;;;;;38.38;22.98;;;;;;;;;;4951024;29;20051;-73
2021/08/05 06:14:13;;;;;;;36.95;22.27;;;;;;;;;;4951795;29;20075;-73
2021/08/05 06:16:39;;;;;;;34.80;21.67;;;;;;;;;;4941910;29;20139;-71
2021/08/05 06:19:04;;;;;;;33.58;20.58;;;;;;;;;;4933189;29;20309;-72
2021/08/05 06:21:30;;;;;;;36.85;21.77;;;;;;;;;;4951278;29;20031;-74
2021/08/05 06:23:56;;;;;;;33.30;19.60;;;;;;;;;;4934322;29;20558;-73
2021/08/05 06:26:23;;;;;;;35.55;21.30;;;;;;;;;;4936615;29;20050;-73
2021/08/05 06:28:49;;;;;;;27.27;18.67;;;;;;;;;;4936128;29;20027;-74
2021/08/05 06:31:16;;;;;;;33.13;19.38;;;;;;;;;;4935587;29;20455;-73
2021/08/05 06:33:41;;;;;;;26.42;18.13;;;;;;;;;;4952200;29;20082;-74
2021/08/05 06:36:07;;;;;;;29.92;19.38;;;;;;;;;;4934582;29;20063;-73
2021/08/05 06:38:32;;;;;;;27.13;17.30;;;;;;;;;;4935431;29;20472;-73
2021/08/05 06:40:58;;;;;;;22.77;16.08;;;;;;;;;;4917109;29;20395;-74
2021/08/05 06:43:23;;;;;;;22.65;16.13;;;;;;;;;;4950040;29;20078;-73
2021/08/05 06:45:49;;;;;;;27.23;17.30;;;;;;;;;;4931271;29;20133;-73
2021/08/05 06:48:15;;;;;;;26.10;17.70;;;;;;;;;;4946509;29;20495;-74
2021/08/05 06:50:40;;;;;;;29.42;16.70;;;;;;;;;;4947347;28;20042;-74
2021/08/05 06:53:06;;;;;;;24.95;16.52;;;;;;;;;;4942428;29;20542;-73
2021/08/05 06:55:31;;;;;;;28.80;25.15;;;;;;;;;;4928719;29;20387;-74
2021/08/05 06:57:57;;;;;;;21.40;14.73;;;;;;;;;;4919748;29;20356;-73
2021/08/05 07:00:22;;;;;;;23.02;14.30;;;;;;;;;;4943970;28;20504;-73
2021/08/05 07:02:49;;;;;;;17.67;13.00;;;;;;;;;;4939771;29;20095;-74
2021/08/05 07:05:15;;;;;;;17.05;12.35;;;;;;;;;;4925422;29;20058;-74
2021/08/05 07:07:40;;;;;;;19.30;12.85;;;;;;;;;;4938817;28;20055;-74
2021/08/05 07:10:06;;;;;;;16.70;12.18;;;;;;;;;;4943203;29;20479;-73
2021/08/05 07:12:32;;;;;;;19.23;13.23;;;;;;;;;;4935157;29;20038;-74
2021/08/05 07:14:59;;;;;;;22.52;14.35;;;;;;;;;;4939122;29;20031;-73
2021/08/05 07:17:26;;;;;;;20.52;13.05;;;;;;;;;;4934118;29;21247;-72
2021/08/05 07:19:51;;;;;;;19.63;14.27;;;;;;;;;;4923616;29;20454;-73
2021/08/05 07:22:17;;;;;;;16.77;11.48;;;;;;;;;;4940699;29;20078;-73
2021/08/05 07:24:43;;;;;;;26.00;14.05;;;;;;;;;;4939523;28;21186;-74
2021/08/05 07:27:10;;;;;;;24.70;13.23;;;;;;;;;;4942084;29;20023;-72
2021/08/05 07:29:36;;;;;;;20.90;14.45;;;;;;;;;;4945365;28;20023;-74
2021/08/05 07:32:05;;;;;;;23.92;16.60;;;;;;;;;;4921511;29;20035;-74
2021/08/05 07:34:35;;;;;;;19.33;14.40;;;;;;;;;;4924684;29;20118;-74
2021/08/05 07:37:01;;;;;;;18.60;13.73;;;;;;;;;;4938035;28;20031;-74
2021/08/05 07:39:27;;;;;;;21.27;14.13;;;;;;;;;;4940915;28;20285;-73
2021/08/05 07:41:53;;;;;;;26.10;15.70;;;;;;;;;;4922307;29;20034;-75
2021/08/05 07:44:22;;;;;;;22.02;14.00;;;;;;;;;;4924643;29;20031;-74
2021/08/05 07:46:48;;;;;;;20.42;14.68;;;;;;;;;;4937132;29;20270;-73
2021/08/05 07:49:14;;;;;;;20.48;14.63;;;;;;;;;;4938553;29;20019;-74
2021/08/05 07:51:40;;;;;;;20.55;15.20;;;;;;;;;;4915091;29;20511;-74
2021/08/05 07:54:06;;;;;;;19.00;14.18;;;;;;;;;;4903754;29;20526;-74
2021/08/05 07:56:31;;;;;;;23.35;14.93;;;;;;;;;;4911763;29;20031;-73
2021/08/05 07:58:57;;;;;;;27.25;17.23;;;;;;;;;;4932751;29;20039;-73
2021/08/05 08:01:23;;;;;;;17.95;13.95;;;;;;;;;;4934213;29;20031;-74
2021/08/05 08:03:48;;;;;;;20.70;16.40;;;;;;;;;;4937683;29;20121;-73
2021/08/05 08:06:14;;;;;;;19.38;14.18;;;;;;;;;;4914119;29;20031;-74
2021/08/05 08:08:40;;;;;;;20.98;15.63;;;;;;;;;;4926782;29;20159;-74
2021/08/05 08:11:05;;;;;;;23.05;15.13;;;;;;;;;;4932334;29;20034;-73
2021/08/05 08:13:31;;;;;;;20.63;14.60;;;;;;;;;;4933627;29;20210;-73
2021/08/05 08:15:58;;;;;;;20.20;13.38;;;;;;;;;;4934968;29;20035;-72
2021/08/05 08:18:23;;;;;;;19.05;13.30;;;;;;;;;;4937028;28;20164;-74
2021/08/05 08:20:50;;;;;;;18.00;12.90;;;;;;;;;;4942147;29;20039;-73
2021/08/05 08:23:15;;;;;;;27.00;14.35;;;;;;;;;;4942273;29;20035;-74
2021/08/05 08:25:41;;;;;;;16.25;13.35;;;;;;;;;;4939054;29;20092;-74
2021/08/05 08:28:08;;;;;;;20.35;13.15;;;;;;;;;;4938846;29;20023;-74
2021/08/05 08:30:35;;;;;;;15.20;11.68;;;;;;;;;;4936180;29;20589;-74
2021/08/05 08:33:00;;;;;;;14.07;10.15;;;;;;;;;;4946527;28;20759;-73
2021/08/05 08:35:26;;;;;;;18.08;10.52;;;;;;;;;;4943376;29;20035;-71
2021/08/05 08:37:52;;;;;;;11.20;7.35;;;;;;;;;;4946105;28;20019;-73
2021/08/05 08:40:18;;;;;;;9.32;6.65;;;;;;;;;;4925104;29;20581;-74
2021/08/05 08:42:45;;;;;;;12.00;6.53;;;;;;;;;;4910876;29;20039;-74
2021/08/05 08:45:13;;;;;;;14.32;7.88;;;;;;;;;;4923151;29;20085;-72
2021/08/05 08:47:41;;;;;;;18.38;8.20;;;;;;;;;;4923525;29;20038;-73
2021/08/05 08:50:07;;;;;;;9.13;6.05;;;;;;;;;;4911179;29;20035;-73
2021/08/05 08:52:35;;;;;;;6.63;5.78;;;;;;;;;;4926497;29;20122;-74
2021/08/05 08:55:03;;;;;;;12.88;7.75;;;;;;;;;;4919676;29;20123;-74
2021/08/05 08:57:31;;;;;;;13.38;6.53;;;;;;;;;;4919220;29;20157;-74
2021/08/05 08:59:58;;;;;;;14.15;9.50;;;;;;;;;;4934336;29;20116;-73
2021/08/05 09:02:25;;;;;;;17.95;7.97;;;;;;;;;;4918170;29;20465;-74
2021/08/05 09:04:53;;;;;;;10.35;6.53;;;;;;;;;;4915652;29;20324;-75
2021/08/05 09:07:21;;;;;;;9.35;6.22;;;;;;;;;;4934948;29;20074;-74
2021/08/05 09:09:47;;;;;;;9.93;6.95;;;;;;;;;;4912648;29;20489;-74
2021/08/05 09:12:15;;;;;;;10.57;8.10;;;;;;;;;;4923519;29;20038;-73
2021/08/05 09:14:52;;;;;;;11.82;6.82;;;;;;;;;;4941486;28;20035;-73
2021/08/05 09:17:20;;;;;;;8.20;6.13;;;;;;;;;;4923926;29;20126;-74
2021/08/05 09:19:46;;;;;;;15.20;6.22;;;;;;;;;;4923568;29;20050;-74
2021/08/05 09:22:11;;;;;;;14.43;7.18;;;;;;;;;;4926461;29;20030;-73
2021/08/05 09:24:37;;;;;;;10.20;6.07;;;;;;;;;;4942638;28;20051;-73
2021/08/05 09:27:03;;;;;;;11.15;6.60;;;;;;;;;;4912306;29;20031;-75
2021/08/05 09:29:30;;;;;;;19.58;8.07;;;;;;;;;;4916216;28;20209;-73
2021/08/05 09:31:59;;;;;;;12.05;7.68;;;;;;;;;;4932770;29;20031;-74
2021/08/05 09:35:05;;;;;;;13.80;8.35;;;;;;;;;;4930676;29;20041;-74
2021/08/05 09:37:39;;;;;;;12.93;8.48;;;;;;;;;;4919987;29;20157;-73
2021/08/05 09:40:12;;;;;;;11.95;9.60;;;;;;;;;;4924389;29;20082;-73
2021/08/05 09:42:38;;;;;;;12.93;8.23;;;;;;;;;;4927477;29;20041;-73
2021/08/05 09:45:06;;;;;;;13.07;9.30;;;;;;;;;;4936633;28;20071;-74
2021/08/05 09:47:42;;;;;;;18.67;8.63;;;;;;;;;;4923432;29;20035;-75
2021/08/05 09:50:09;;;;;;;11.20;9.30;;;;;;;;;;4927159;28;20035;-74
2021/08/05 09:52:36;;;;;;;15.98;9.52;;;;;;;;;;4924619;29;20167;-74
2021/08/05 09:55:07;;;;;;;11.55;8.30;;;;;;;;;;4940071;29;20046;-74
2021/08/05 09:57:38;;;;;;;11.30;8.50;;;;;;;;;;4941025;29;20036;-74
2021/08/05 10:00:13;;;;;;;13.67;8.93;;;;;;;;;;4943106;29;20034;-72
2021/08/05 10:02:45;;;;;;;11.77;8.40;;;;;;;;;;4924551;29;20284;-72
2021/08/05 10:05:12;;;;;;;10.80;8.07;;;;;;;;;;4921018;29;20112;-73
2021/08/05 10:07:48;;;;;;;9.73;8.10;;;;;;;;;;4924932;29;20039;-73
2021/08/05 10:10:16;;;;;;;11.45;8.27;;;;;;;;;;4926563;28;20027;-74
2021/08/05 10:12:50;;;;;;;15.35;9.77;;;;;;;;;;4942114;28;20042;-74
2021/08/05 10:15:16;;;;;;;16.88;9.75;;;;;;;;;;4937944;28;20079;-73
2021/08/05 10:17:43;;;;;;;12.20;9.32;;;;;;;;;;4935109;29;20046;-75
2021/08/05 10:20:11;;;;;;;16.70;9.35;;;;;;;;;;4927141;29;20679;-73
2021/08/05 10:22:37;;;;;;;12.48;9.18;;;;;;;;;;4939963;29;20031;-74
2021/08/05 10:25:06;;;;;;;12.00;8.88;;;;;;;;;;4921682;29;20526;-73
2021/08/05 10:27:32;;;;;;;14.40;8.85;;;;;;;;;;4919623;29;20087;-73
2021/08/05 10:29:59;;;;;;;11.95;8.55;;;;;;;;;;4920440;29;21027;-73
2021/08/05 10:32:25;;;;;;;9.27;7.97;;;;;;;;;;4922098;29;20050;-72
2021/08/05 10:34:52;;;;;;;15.02;10.30;;;;;;;;;;4921860;29;20031;-73
2021/08/05 10:37:18;;;;;;;12.40;8.68;;;;;;;;;;4922947;29;20150;-74
2021/08/05 10:39:46;;;;;;;12.30;9.40;;;;;;;;;;4922342;29;20102;-74
2021/08/05 10:42:15;;;;;;;16.60;10.95;;;;;;;;;;4913631;29;20480;-74
2021/08/05 10:44:42;;;;;;;16.13;9.50;;;;;;;;;;4919646;29;20035;-74
2021/08/05 10:47:13;;;;;;;9.57;7.45;;;;;;;;;;4919448;29;20123;-73
2021/08/05 10:49:43;;;;;;;15.27;8.82;;;;;;;;;;4918221;29;20030;-73
2021/08/05 10:52:37;;;;;;;12.02;7.60;;;;;;;;;;4920510;29;20050;-72
2021/08/05 10:55:44;;;;;;;22.23;12.52;;;;;;;;;;4917101;29;20114;-73
2021/08/05 10:58:17;;;;;;;14.27;9.35;;;;;;;;;;4912367;29;20054;-74
2021/08/05 11:00:52;;;;;;;17.85;10.18;;;;;;;;;;4922298;29;20550;-74
2021/08/05 11:03:40;;;;;;;13.77;9.02;;;;;;;;;;4925595;29;20048;-75
2021/08/05 11:06:27;;;;;;;23.60;10.82;;;;;;;;;;4923774;29;20020;-73
2021/08/05 11:08:54;;;;;;;13.07;9.68;;;;;;;;;;4919121;29;20817;-75
2021/08/05 11:11:23;;;;;;;8.88;8.00;;;;;;;;;;4937323;29;20801;-73
2021/08/05 11:13:57;;;;;;;35.72;11.18;;;;;;;;;;4922705;29;20031;-74
2021/08/05 11:16:51;;;;;;;19.58;9.90;;;;;;;;;;4918759;29;20031;-74
2021/08/05 11:19:24;;;;;;;12.38;7.80;;;;;;;;;;4919737;29;20558;-74
2021/08/05 11:21:51;;;;;;;18.48;8.50;;;;;;;;;;4918573;29;20634;-77
2021/08/05 11:24:47;;;;;;;18.77;9.13;;;;;;;;;;4928605;29;20138;-72
2021/08/05 11:27:19;;;;;;;12.95;7.32;;;;;;;;;;4942271;28;20046;-75
2021/08/05 11:29:45;;;;;;;14.55;7.95;;;;;;;;;;4943963;28;20027;-74
2021/08/05 11:32:23;;;;;;;10.90;8.02;;;;;;;;;;4938739;28;20035;-75
2021/08/05 11:34:57;;;;;;;9.00;7.13;;;;;;;;;;4939396;28;20502;-74
2021/08/05 11:37:23;;;;;;;16.40;8.60;;;;;;;;;;4938215;29;20035;-74
2021/08/05 11:39:53;;;;;;;12.88;10.13;;;;;;;;;;4937617;28;20479;-74
2021/08/05 11:42:20;;;;;;;17.45;8.48;;;;;;;;;;4913744;29;20141;-74
2021/08/05 11:44:48;;;;;;;8.07;5.72;;;;;;;;;;4922236;28;20111;-74
2021/08/05 11:47:19;;;;;;;19.13;6.50;;;;;;;;;;4938595;28;20804;-74
2021/08/05 11:50:07;;;;;;;12.63;6.85;;;;;;;;;;4940623;28;20035;-74
2021/08/05 11:52:43;;;;;;;5.43;4.22;;;;;;;;;;4931928;28;20372;-74
2021/08/05 11:55:16;;;;;;;6.82;3.90;;;;;;;;;;4925197;28;20127;-73
2021/08/05 11:57:57;;;;;;;6.13;5.53;;;;;;;;;;4944473;28;20034;-74
2021/08/05 12:00:28;;;;;;;7.97;4.10;;;;;;;;;;4929496;29;20120;-74
2021/08/05 12:03:02;;;;;;;7.60;4.53;;;;;;;;;;4925911;29;20836;-74
2021/08/05 12:05:36;;;;;;;9.98;4.95;;;;;;;;;;4940782;28;20043;-72
2021/08/05 12:08:02;;;;;;;5.30;4.68;;;;;;;;;;4950154;28;20031;-74
2021/08/05 12:10:30;;;;;;;6.38;4.70;;;;;;;;;;4926115;28;20042;-73
2021/08/05 12:13:04;;;;;;;6.40;4.72;;;;;;;;;;4927847;29;20422;-73
2021/08/05 12:15:32;;;;;;;7.38;4.97;;;;;;;;;;4919302;28;20035;-73
2021/08/05 12:18:09;;;;;;;25.00;6.82;;;;;;;;;;4922639;29;20547;-74
2021/08/05 12:20:42;;;;;;;8.77;5.70;;;;;;;;;;4942061;28;20041;-75
2021/08/05 12:23:13;;;;;;;24.48;6.28;;;;;;;;;;4926344;28;20027;-73
2021/08/05 12:25:51;;;;;;;7.55;4.07;;;;;;;;;;4921289;29;20043;-73
2021/08/05 12:28:21;;;;;;;14.57;4.90;;;;;;;;;;4938491;28;20057;-73
2021/08/05 12:30:51;;;;;;;6.72;4.45;;;;;;;;;;4941440;28;20053;-75
2021/08/05 12:33:21;;;;;;;6.35;4.72;;;;;;;;;;4940482;28;20031;-75
2021/08/05 12:36:09;;;;;;;8.02;5.22;;;;;;;;;;4940351;28;20045;-74
2021/08/05 12:38:59;;;;;;;4.00;3.60;;;;;;;;;;4924377;28;20066;-74
2021/08/05 12:41:27;;;;;;;6.60;4.18;;;;;;;;;;4940794;29;20483;-73
2021/08/05 12:43:56;;;;;;;5.95;3.85;;;;;;;;;;4942592;29;20177;-73
2021/08/05 12:46:23;;;;;;;6.10;3.80;;;;;;;;;;4941995;29;20088;-73
2021/08/05 12:48:55;;;;;;;7.47;4.05;;;;;;;;;;4929013;29;20038;-75
2021/08/05 12:51:30;;;;;;;7.68;4.53;;;;;;;;;;4919760;29;20062;-75
2021/08/05 12:54:19;;;;;;;4.63;3.70;;;;;;;;;;4900725;29;20042;-74
2021/08/05 12:56:51;;;;;;;5.68;3.50;;;;;;;;;;4916342;29;20082;-74
2021/08/05 12:59:17;;;;;;;6.95;3.70;;;;;;;;;;4920213;29;20035;-74
2021/08/05 13:01:43;;;;;;;6.78;3.20;;;;;;;;;;4924095;29;20034;-74
2021/08/05 13:04:25;;;;;;;4.53;3.65;;;;;;;;;;4939089;28;20035;-75
2021/08/05 13:06:57;;;;;;;6.80;4.57;;;;;;;;;;4944370;28;20046;-74
2021/08/05 13:09:28;;;;;;;6.35;4.18;;;;;;;;;;4929941;29;20062;-74
2021/08/05 13:11:56;;;;;;;6.72;4.75;;;;;;;;;;4942752;29;20510;-75
2021/08/05 13:14:31;;;;;;;5.93;3.88;;;;;;;;;;4913591;29;20083;-74
2021/08/05 13:17:03;;;;;;;5.05;3.70;;;;;;;;;;4906643;29;20036;-74
2021/08/05 13:19:30;;;;;;;8.07;4.50;;;;;;;;;;4907612;29;20123;-74
2021/08/05 13:21:57;;;;;;;8.25;4.93;;;;;;;;;;4912186;29;20040;-74
2021/08/05 13:24:27;;;;;;;12.90;5.43;;;;;;;;;;4905133;29;20056;-74
2021/08/05 13:27:15;;;;;;;15.82;9.45;;;;;;;;;;4895822;29;20236;-74
2021/08/05 13:29:45;;;;;;;14.63;8.30;;;;;;;;;;4894396;29;20038;-73
2021/08/05 13:32:41;;;;;;;14.27;8.40;;;;;;;;;;4898050;29;20063;-73
2021/08/05 13:35:09;;;;;;;17.63;9.80;;;;;;;;;;4900118;29;20028;-74
2021/08/05 13:37:40;;;;;;;16.63;11.02;;;;;;;;;;4899183;29;20032;-74
2021/08/05 13:40:09;;;;;;;21.15;12.48;;;;;;;;;;4902422;29;20042;-73
2021/08/05 13:42:37;;;;;;;18.67;12.10;;;;;;;;;;4905923;29;20449;-74
2021/08/05 13:45:04;;;;;;;27.88;14.65;;;;;;;;;;4905631;29;20032;-75
2021/08/05 13:47:29;;;;;;;23.75;14.00;;;;;;;;;;4907515;29;20112;-75
2021/08/05 13:49:55;;;;;;;23.55;14.00;;;;;;;;;;4912854;29;20066;-74
2021/08/05 13:52:21;;;;;;;16.23;11.00;;;;;;;;;;4909747;29;20448;-73
2021/08/05 13:54:47;;;;;;;19.38;11.65;;;;;;;;;;4912043;29;20103;-74
2021/08/05 13:57:13;;;;;;;17.02;10.38;;;;;;;;;;4910838;29;20043;-74
2021/08/05 13:59:39;;;;;;;14.68;11.10;;;;;;;;;;4912488;29;20036;-73
2021/08/05 14:02:05;;;;;;;13.63;9.07;;;;;;;;;;4907080;29;20096;-72
2021/08/05 14:04:31;;;;;;;12.88;7.55;;;;;;;;;;4906975;29;20381;-73
2021/08/05 14:06:57;;;;;;;13.05;9.60;;;;;;;;;;4904937;29;20039;-74
2021/08/05 14:09:23;;;;;;;8.32;6.68;;;;;;;;;;4904128;29;20033;-73
2021/08/05 14:11:49;;;;;;;10.65;6.88;;;;;;;;;;4905945;29;20467;-73
2021/08/05 14:14:15;;;;;;;7.20;5.57;;;;;;;;;;4907785;29;20036;-73
2021/08/05 14:16:47;;;;;;;10.65;4.72;;;;;;;;;;4907628;29;20059;-74
2021/08/05 14:19:15;;;;;;;14.35;8.38;;;;;;;;;;4920459;29;20538;-73
2021/08/05 14:21:42;;;;;;;9.18;6.45;;;;;;;;;;4901339;29;20095;-73
2021/08/05 14:24:08;;;;;;;10.90;6.00;;;;;;;;;;4907574;29;20942;-73
2021/08/05 14:26:33;;;;;;;13.55;6.70;;;;;;;;;;4896841;29;20060;-72
2021/08/05 14:29:00;;;;;;;10.48;6.22;;;;;;;;;;4905528;29;20091;-74
2021/08/05 14:31:25;;;;;;;11.38;5.70;;;;;;;;;;4922514;29;20391;-74
2021/08/05 14:33:51;;;;;;;13.05;5.97;;;;;;;;;;4906758;29;20031;-74
2021/08/05 14:36:16;;;;;;;11.70;7.45;;;;;;;;;;4907150;29;20483;-75